createdAt,value
2023-02-15T00:01:08.776Z,101624.75
2023-02-15T00:03:36.560Z,101638.44
2023-02-15T00:06:05.409Z,101635.63
2023-02-15T00:08:33.171Z,101630.44
2023-02-15T00:11:08.204Z,101632.28
2023-02-15T00:13:35.636Z,101640.19
2023-02-15T00:16:04.566Z,101640.09
2023-02-15T00:18:31.909Z,101640.34
2023-02-15T00:20:59.375Z,101635.97
2023-02-15T00:23:27.560Z,101639.59
2023-02-15T00:26:10.886Z,101649.16
2023-02-15T00:28:38.797Z,101651.31
2023-02-15T00:31:07.795Z,101642.72
2023-02-15T00:33:35.994Z,101652.84
2023-02-15T00:36:04.843Z,101648.44
2023-02-15T00:38:33.164Z,101651.06
2023-02-15T00:41:03.283Z,101655.03
2023-02-15T00:43:31.753Z,101648.75
2023-02-15T00:46:00.253Z,101665.53
2023-02-15T00:48:27.869Z,101658.97
2023-02-15T00:50:57.412Z,101655.00
2023-02-15T00:53:26.554Z,101656.66
2023-02-15T00:55:58.162Z,101658.78
2023-02-15T00:58:25.819Z,101657.44
2023-02-15T01:00:53.669Z,101652.78
2023-02-15T01:03:22.279Z,101653.91
2023-02-15T01:05:49.928Z,101654.78
2023-02-15T01:08:17.553Z,101659.16
2023-02-15T01:10:44.877Z,101648.75
2023-02-15T01:13:12.149Z,101651.81
2023-02-15T01:15:39.513Z,101652.69
2023-02-15T01:18:06.826Z,101663.81
2023-02-15T01:20:37.330Z,101656.91
2023-02-15T01:23:04.817Z,101652.50
2023-02-15T01:25:34.560Z,101656.63
2023-02-15T01:28:02.589Z,101647.72
2023-02-15T01:30:30.081Z,101649.59
2023-02-15T01:32:57.302Z,101653.13
2023-02-15T01:35:25.367Z,101647.88
2023-02-15T01:37:52.723Z,101652.63
2023-02-15T01:40:20.566Z,101652.44
2023-02-15T01:42:52.383Z,101651.91
2023-02-15T01:45:22.367Z,101653.09
2023-02-15T01:48:23.496Z,101663.25
2023-02-15T01:51:01.203Z,101651.09
2023-02-15T01:53:38.248Z,101651.44
2023-02-15T01:56:34.292Z,101661.84
2023-02-15T01:59:08.220Z,101655.97
2023-02-15T02:01:36.322Z,101654.78
2023-02-15T02:04:24.048Z,101650.66
2023-02-15T02:06:52.303Z,101650.31
2023-02-15T02:09:19.635Z,101646.50
2023-02-15T02:11:48.888Z,101653.56
2023-02-15T02:14:17.645Z,101650.19
2023-02-15T02:16:47.929Z,101649.50
2023-02-15T02:19:39.925Z,101652.06
2023-02-15T02:22:13.084Z,101647.69
2023-02-15T02:25:24.326Z,101651.47
2023-02-15T02:28:16.878Z,101654.09
2023-02-15T02:30:52.352Z,101659.63
2023-02-15T02:33:30.573Z,101651.91
2023-02-15T02:36:15.929Z,101660.63
2023-02-15T02:38:56.400Z,101659.88
2023-02-15T02:41:28.929Z,101665.13
2023-02-15T02:44:09.541Z,101666.28
2023-02-15T02:46:59.370Z,101667.31
2023-02-15T02:49:37.066Z,101668.44
2023-02-15T02:52:28.672Z,101661.69
2023-02-15T02:54:57.007Z,101663.38
2023-02-15T02:57:27.511Z,101658.59
2023-02-15T02:59:57.317Z,101661.69
2023-02-15T03:02:29.973Z,101653.84
2023-02-15T03:05:04.929Z,101669.94
2023-02-15T03:07:33.348Z,101660.44
2023-02-15T03:10:04.533Z,101656.81
2023-02-15T03:12:41.143Z,101660.09
2023-02-15T03:15:17.328Z,101661.38
2023-02-15T03:17:48.935Z,101663.75
2023-02-15T03:20:30.749Z,101669.97
2023-02-15T03:23:02.528Z,101668.84
2023-02-15T03:25:35.991Z,101670.09
2023-02-15T03:28:09.650Z,101668.91
2023-02-15T03:30:40.932Z,101662.69
2023-02-15T03:33:09.882Z,101661.38
2023-02-15T03:35:45.640Z,101666.81
2023-02-15T03:38:18.291Z,101663.38
2023-02-15T03:40:47.818Z,101671.91
2023-02-15T03:43:25.585Z,101677.50
2023-02-15T03:46:00.213Z,101674.91
2023-02-15T03:48:32.504Z,101676.22
2023-02-15T03:51:05.854Z,101673.59
2023-02-15T03:53:33.178Z,101680.31
2023-02-15T03:56:00.928Z,101672.44
2023-02-15T03:58:28.418Z,101674.06
2023-02-15T04:01:01.277Z,101667.19
2023-02-15T04:03:43.299Z,101665.72
2023-02-15T04:06:10.484Z,101665.38
2023-02-15T04:08:37.767Z,101673.75
2023-02-15T04:11:05.128Z,101671.28
2023-02-15T04:13:33.337Z,101660.94
2023-02-15T04:16:01.245Z,101670.28
2023-02-15T04:18:28.917Z,101675.75
2023-02-15T04:20:56.139Z,101667.38
2023-02-15T04:23:23.485Z,101668.78
2023-02-15T04:25:50.811Z,101660.44
2023-02-15T04:28:18.751Z,101663.28
2023-02-15T04:30:47.467Z,101671.78
2023-02-15T04:33:14.724Z,101671.94
2023-02-15T04:35:44.413Z,101666.69
2023-02-15T04:38:11.693Z,101675.22
2023-02-15T04:40:39.048Z,101676.53
2023-02-15T04:43:06.630Z,101680.50
2023-02-15T04:45:34.344Z,101686.38
2023-02-15T04:48:02.366Z,101690.00
2023-02-15T04:50:33.909Z,101692.97
2023-02-15T04:53:03.174Z,101695.56
2023-02-15T04:55:33.461Z,101696.69
2023-02-15T04:58:08.551Z,101702.13
2023-02-15T05:00:38.365Z,101694.44
2023-02-15T05:03:06.278Z,101704.44
2023-02-15T05:05:34.189Z,101699.38
2023-02-15T05:08:05.176Z,101698.22
2023-02-15T05:10:35.701Z,101706.47
2023-02-15T05:13:05.783Z,101699.06
2023-02-15T05:15:32.948Z,101706.13
2023-02-15T05:18:02.750Z,101705.13
2023-02-15T05:20:29.972Z,101714.31
2023-02-15T05:22:57.290Z,101713.94
2023-02-15T05:25:24.646Z,101712.97
2023-02-15T05:27:51.926Z,101722.63
2023-02-15T05:30:19.402Z,101728.88
2023-02-15T05:32:52.643Z,101731.00
2023-02-15T05:35:23.621Z,101741.19
2023-02-15T05:37:53.820Z,101738.09
2023-02-15T05:40:21.147Z,101734.50
2023-02-15T05:42:51.505Z,101731.03
2023-02-15T05:45:19.781Z,101735.81
2023-02-15T05:47:47.397Z,101741.91
2023-02-15T05:50:15.796Z,101741.41
2023-02-15T05:52:43.152Z,101737.00
2023-02-15T05:55:13.443Z,101740.13
2023-02-15T05:57:46.712Z,101738.63
2023-02-15T06:00:17.088Z,101740.28
2023-02-15T06:02:44.815Z,101751.09
2023-02-15T06:05:12.322Z,101738.88
2023-02-15T06:07:40.063Z,101751.06
2023-02-15T06:10:10.544Z,101755.34
2023-02-15T06:12:38.763Z,101753.59
2023-02-15T06:15:06.488Z,101762.00
2023-02-15T06:17:34.361Z,101756.28
2023-02-15T06:20:01.787Z,101748.88
2023-02-15T06:22:29.058Z,101750.59
2023-02-15T06:24:57.323Z,101756.09
2023-02-15T06:27:24.545Z,101747.81
2023-02-15T06:29:51.845Z,101751.84
2023-02-15T06:32:19.712Z,101747.06
2023-02-15T06:34:48.761Z,101756.00
2023-02-15T06:37:16.204Z,101752.38
2023-02-15T06:39:43.829Z,101752.16
2023-02-15T06:42:11.239Z,101754.25
2023-02-15T06:44:38.508Z,101749.91
2023-02-15T06:47:05.749Z,101762.47
2023-02-15T06:49:33.001Z,101758.81
2023-02-15T06:52:00.251Z,101764.44
2023-02-15T06:54:27.668Z,101760.34
2023-02-15T06:56:54.981Z,101757.75
2023-02-15T06:59:22.580Z,101760.00
2023-02-15T07:01:49.927Z,101757.41
2023-02-15T07:04:17.303Z,101759.91
2023-02-15T07:06:44.747Z,101759.91
2023-02-15T07:09:12.093Z,101751.34
2023-02-15T07:11:39.586Z,101752.03
2023-02-15T07:14:07.101Z,101757.88
2023-02-15T07:16:34.611Z,101767.00
2023-02-15T07:19:02.317Z,101767.28
2023-02-15T07:21:29.596Z,101771.78
2023-02-15T07:23:58.193Z,101770.09
2023-02-15T07:26:26.141Z,101765.81
2023-02-15T07:28:53.472Z,101769.56
2023-02-15T07:31:21.709Z,101764.03
2023-02-15T07:33:48.976Z,101763.44
2023-02-15T07:36:16.221Z,101758.72
2023-02-15T07:38:43.527Z,101763.22
2023-02-15T07:41:12.981Z,101756.72
2023-02-15T07:43:42.958Z,101766.50
2023-02-15T07:46:14.030Z,101767.69
2023-02-15T07:48:42.114Z,101759.94
2023-02-15T07:51:11.960Z,101758.97
2023-02-15T07:53:39.837Z,101753.66
2023-02-15T07:56:16.675Z,101757.13
2023-02-15T07:58:43.937Z,101757.31
2023-02-15T08:01:12.285Z,101757.00
2023-02-15T08:03:39.701Z,101751.56
2023-02-15T08:06:08.166Z,101756.53
2023-02-15T08:08:35.626Z,101754.31
2023-02-15T08:11:07.296Z,101751.31
2023-02-15T08:13:34.962Z,101763.38
2023-02-15T08:16:02.486Z,101754.22
2023-02-15T08:18:30.673Z,101758.06
2023-02-15T08:20:57.932Z,101760.28
2023-02-15T08:23:25.172Z,101755.41
2023-02-15T08:25:52.388Z,101758.28
2023-02-15T08:28:19.786Z,101759.56
2023-02-15T08:30:47.321Z,101748.84
2023-02-15T08:33:14.862Z,101758.69
2023-02-15T08:35:42.072Z,101751.00
2023-02-15T08:38:09.336Z,101753.19
2023-02-15T08:40:36.687Z,101757.31
2023-02-15T08:43:04.298Z,101756.16
2023-02-15T08:45:31.707Z,101752.59
2023-02-15T08:47:59.450Z,101755.13
2023-02-15T08:50:26.858Z,101749.31
2023-02-15T08:52:54.171Z,101757.78
2023-02-15T08:55:21.358Z,101753.25
2023-02-15T08:57:48.615Z,101754.78
2023-02-15T09:00:16.316Z,101745.03
2023-02-15T09:02:43.544Z,101753.16
2023-02-15T09:05:11.231Z,101748.72
2023-02-15T09:07:38.465Z,101753.13
2023-02-15T09:10:06.970Z,101743.31
2023-02-15T09:12:34.279Z,101753.25
2023-02-15T09:15:01.750Z,101747.88
2023-02-15T09:17:29.146Z,101750.94
2023-02-15T09:19:56.544Z,101751.13
2023-02-15T09:22:23.941Z,101747.66
2023-02-15T09:24:51.690Z,101747.22
2023-02-15T09:27:18.919Z,101758.81
2023-02-15T09:29:47.216Z,101756.03
2023-02-15T09:32:15.137Z,101746.84
2023-02-15T09:34:42.433Z,101753.56
2023-02-15T09:37:09.708Z,101751.59
2023-02-15T09:39:40.442Z,101752.53
2023-02-15T09:42:16.608Z,101748.47
2023-02-15T09:45:05.637Z,101748.94
2023-02-15T09:48:08.843Z,101753.91
2023-02-15T09:50:53.783Z,101748.94
2023-02-15T09:53:30.324Z,101746.69
2023-02-15T09:56:36.411Z,101746.81
2023-02-15T09:59:36.623Z,101730.09
2023-02-15T10:02:18.910Z,101739.59
2023-02-15T10:05:01.556Z,101724.84
2023-02-15T10:07:54.823Z,101721.56
2023-02-15T10:10:25.213Z,101716.03
2023-02-15T10:13:05.660Z,101710.66
2023-02-15T10:15:39.126Z,101710.28
2023-02-15T10:18:30.242Z,101713.50
2023-02-15T10:21:45.252Z,101702.88
2023-02-15T10:24:18.272Z,101697.84
2023-02-15T10:26:49.649Z,101694.19
2023-02-15T10:29:31.150Z,101688.78
2023-02-15T10:32:21.730Z,101679.50
2023-02-15T10:34:56.938Z,101681.22
2023-02-15T10:38:06.948Z,101680.56
2023-02-15T10:40:43.179Z,101671.09
2023-02-15T10:43:48.837Z,101668.53
2023-02-15T10:46:46.668Z,101668.75
2023-02-15T10:49:30.821Z,101656.63
2023-02-15T10:52:03.867Z,101648.25
2023-02-15T10:54:50.153Z,101642.78
2023-02-15T10:57:33.312Z,101640.25
2023-02-15T11:00:09.522Z,101646.50
2023-02-15T11:02:58.833Z,101632.31
2023-02-15T11:05:38.691Z,101641.03
2023-02-15T11:08:10.643Z,101633.06
2023-02-15T11:10:46.811Z,101626.38
2023-02-15T11:13:19.873Z,101624.91
2023-02-15T11:15:54.251Z,101626.41
2023-02-15T11:18:35.370Z,101617.97
2023-02-15T11:21:09.574Z,101615.69
2023-02-15T11:23:42.655Z,101619.50
2023-02-15T11:26:17.899Z,101616.56
2023-02-15T11:28:58.237Z,101604.63
2023-02-15T11:31:30.695Z,101606.31
2023-02-15T11:34:04.339Z,101601.88
2023-02-15T11:36:40.192Z,101608.03
2023-02-15T11:39:13.723Z,101605.94
2023-02-15T11:41:47.120Z,101607.16
2023-02-15T11:44:14.340Z,101612.56
2023-02-15T11:46:42.179Z,101609.44
2023-02-15T11:49:32.705Z,101596.25
2023-02-15T11:52:05.809Z,101590.69
2023-02-15T11:54:36.798Z,101592.19
2023-02-15T11:57:13.534Z,101592.34
2023-02-15T11:59:45.247Z,101583.03
2023-02-15T12:02:34.411Z,101582.84
2023-02-15T12:05:07.865Z,101577.16
2023-02-15T12:07:47.701Z,101567.31
2023-02-15T12:10:15.018Z,101573.88
2023-02-15T12:12:43.583Z,101563.66
2023-02-15T12:15:13.778Z,101563.97
2023-02-15T12:17:53.509Z,101565.56
2023-02-15T12:20:21.046Z,101578.06
2023-02-15T12:22:55.388Z,101561.19
2023-02-15T12:25:43.479Z,101555.41
2023-02-15T12:28:39.656Z,101555.59
2023-02-15T12:31:31.211Z,101555.59
2023-02-15T12:34:01.879Z,101549.59
2023-02-15T12:36:43.218Z,101550.22
2023-02-15T12:39:13.657Z,101551.56
2023-02-15T12:41:57.968Z,101553.41
2023-02-15T12:44:28.347Z,101543.50
2023-02-15T12:47:29.020Z,101538.38
2023-02-15T12:50:12.655Z,101542.94
2023-02-15T12:52:40.288Z,101545.53
2023-02-15T12:55:28.520Z,101548.00
2023-02-15T12:58:18.356Z,101548.31
2023-02-15T13:00:46.780Z,101553.41
2023-02-15T13:03:20.771Z,101541.75
2023-02-15T13:05:56.870Z,101543.44
2023-02-15T13:08:34.195Z,101542.16
2023-02-15T13:11:07.530Z,101548.28
2023-02-15T13:13:46.621Z,101539.13
2023-02-15T13:16:16.026Z,101538.31
2023-02-15T13:18:48.091Z,101529.81
2023-02-15T13:21:25.698Z,101522.47
2023-02-15T13:24:08.613Z,101521.19
2023-02-15T13:26:36.267Z,101529.88
2023-02-15T13:29:14.351Z,101516.00
2023-02-15T13:31:42.159Z,101526.88
2023-02-15T13:34:21.834Z,101524.84
2023-02-15T13:37:40.377Z,101517.97
2023-02-15T13:40:10.894Z,101524.94
2023-02-15T13:42:47.653Z,101524.34
2023-02-15T13:45:17.963Z,101520.84
2023-02-15T13:47:51.167Z,101512.84
2023-02-15T13:50:47.702Z,101516.00
2023-02-15T13:53:27.421Z,101515.69
2023-02-15T13:56:01.783Z,101515.84
2023-02-15T13:58:44.563Z,101509.25
2023-02-15T14:01:16.973Z,101520.38
2023-02-15T14:04:19.511Z,101518.44
2023-02-15T14:07:11.241Z,101518.44
2023-02-15T14:10:00.294Z,101512.44
2023-02-15T14:12:53.781Z,101516.25
2023-02-15T14:15:54.915Z,101511.84
2023-02-15T14:18:22.192Z,101514.34
2023-02-15T14:21:09.030Z,101513.38
2023-02-15T14:23:53.922Z,101515.53
2023-02-15T14:26:21.325Z,101506.03
2023-02-15T14:29:13.815Z,101506.47
2023-02-15T14:31:48.125Z,101499.72
2023-02-15T14:34:22.930Z,101506.13
2023-02-15T14:36:52.578Z,101505.38
2023-02-15T14:39:32.653Z,101502.28
2023-02-15T14:42:25.003Z,101508.06
2023-02-15T14:45:29.605Z,101500.41
2023-02-15T14:48:10.039Z,101507.16
2023-02-15T14:50:40.125Z,101506.72
2023-02-15T14:53:35.369Z,101502.03
2023-02-15T14:56:11.906Z,101508.50
2023-02-15T14:58:55.494Z,101507.56
2023-02-15T15:01:38.334Z,101507.28
2023-02-15T15:04:10.173Z,101511.34
2023-02-15T15:06:39.882Z,101512.19
2023-02-15T15:09:28.478Z,101504.53
2023-02-15T15:12:15.197Z,101513.25
2023-02-15T15:14:44.880Z,101517.09
2023-02-15T15:17:33.958Z,101512.34
2023-02-15T15:20:14.738Z,101514.47
2023-02-15T15:22:43.353Z,101519.50
2023-02-15T15:25:12.303Z,101512.91
2023-02-15T15:27:39.546Z,101510.63
2023-02-15T15:30:16.089Z,101505.75
2023-02-15T15:32:49.672Z,101511.19
2023-02-15T15:35:56.743Z,101515.03
2023-02-15T15:39:01.549Z,101516.31
2023-02-15T15:41:43.640Z,101514.22
2023-02-15T15:44:47.656Z,101511.78
2023-02-15T15:47:17.898Z,101512.13
2023-02-15T15:49:45.327Z,101513.41
2023-02-15T15:52:18.811Z,101514.09
2023-02-15T15:54:49.439Z,101509.66
2023-02-15T15:57:29.446Z,101508.41
2023-02-15T15:59:58.446Z,101508.69
2023-02-15T16:02:26.085Z,101508.28
2023-02-15T16:04:54.077Z,101519.78
2023-02-15T16:07:26.102Z,101516.31
2023-02-15T16:10:06.880Z,101517.34
2023-02-15T16:12:36.687Z,101523.06
2023-02-15T16:15:17.255Z,101518.69
2023-02-15T16:17:48.213Z,101521.31
2023-02-15T16:20:26.195Z,101512.97
2023-02-15T16:23:05.488Z,101521.09
2023-02-15T16:25:40.866Z,101531.97
2023-02-15T16:28:11.754Z,101525.63
2023-02-15T16:30:40.387Z,101538.50
2023-02-15T16:33:11.989Z,101534.91
2023-02-15T16:35:40.983Z,101536.66
2023-02-15T16:38:11.608Z,101540.13
2023-02-15T16:40:47.577Z,101546.34
2023-02-15T16:43:19.669Z,101545.28
2023-02-15T16:45:47.659Z,101548.06
2023-02-15T16:48:21.739Z,101539.84
2023-02-15T16:51:00.263Z,101544.16
2023-02-15T16:53:29.960Z,101549.63
2023-02-15T16:56:03.332Z,101546.22
2023-02-15T16:58:45.867Z,101546.28
2023-02-15T17:01:16.142Z,101545.50
2023-02-15T17:03:43.844Z,101544.41
2023-02-15T17:06:26.469Z,101547.75
2023-02-15T17:09:05.294Z,101547.44
2023-02-15T17:11:41.183Z,101552.63
2023-02-15T17:14:08.460Z,101544.06
2023-02-15T17:16:37.623Z,101544.34
2023-02-15T17:19:25.634Z,101550.31
2023-02-15T17:21:56.469Z,101556.72
2023-02-15T17:24:36.692Z,101555.94
2023-02-15T17:27:19.237Z,101552.47
2023-02-15T17:29:51.124Z,101565.84
2023-02-15T17:32:24.606Z,101564.59
2023-02-15T17:35:18.641Z,101568.19
2023-02-15T17:37:50.310Z,101564.47
2023-02-15T17:40:32.602Z,101566.81
2023-02-15T17:43:00.379Z,101573.00
2023-02-15T17:45:38.134Z,101573.66
2023-02-15T17:48:07.277Z,101577.13
2023-02-15T17:50:36.370Z,101577.59
2023-02-15T17:53:03.837Z,101581.09
2023-02-15T17:55:31.287Z,101580.00
2023-02-15T17:57:58.872Z,101579.75
2023-02-15T18:00:26.428Z,101575.69
2023-02-15T18:02:54.248Z,101580.53
2023-02-15T18:05:22.387Z,101593.63
2023-02-15T18:07:49.913Z,101585.53
2023-02-15T18:10:19.256Z,101582.78
2023-02-15T18:12:46.681Z,101588.94
2023-02-15T18:15:14.009Z,101590.22
2023-02-15T18:17:46.904Z,101593.09
2023-02-15T18:20:23.997Z,101588.66
2023-02-15T18:22:52.824Z,101589.88
2023-02-15T18:25:24.018Z,101590.88
2023-02-15T18:27:55.115Z,101587.22
2023-02-15T18:30:25.934Z,101588.50
2023-02-15T18:32:56.226Z,101583.44
2023-02-15T18:35:30.127Z,101584.25
2023-02-15T18:38:02.311Z,101581.94
2023-02-15T18:40:30.785Z,101585.03
2023-02-15T18:42:59.533Z,101590.16
2023-02-15T18:45:31.587Z,101586.06
2023-02-15T18:47:59.147Z,101590.44
2023-02-15T18:50:31.151Z,101589.44
2023-02-15T18:52:58.852Z,101596.13
2023-02-15T18:55:28.050Z,101594.25
2023-02-15T18:57:58.138Z,101594.31
2023-02-15T19:00:34.514Z,101594.13
2023-02-15T19:03:06.292Z,101598.78
2023-02-15T19:05:36.207Z,101593.28
2023-02-15T19:08:03.830Z,101593.94
2023-02-15T19:10:33.034Z,101589.66
2023-02-15T19:13:00.372Z,101589.03
2023-02-15T19:15:32.264Z,101598.03
2023-02-15T19:18:00.158Z,101594.34
2023-02-15T19:20:42.860Z,101594.97
2023-02-15T19:23:22.256Z,101597.44
2023-02-15T19:25:51.538Z,101598.66
2023-02-15T19:28:26.178Z,101600.50
2023-02-15T19:30:53.594Z,101599.28
2023-02-15T19:33:26.106Z,101607.03
2023-02-15T19:35:55.324Z,101606.84
2023-02-15T19:38:32.409Z,101594.41
2023-02-15T19:41:07.263Z,101596.63
2023-02-15T19:43:35.821Z,101600.91
2023-02-15T19:46:03.537Z,101596.22
2023-02-15T19:48:30.954Z,101594.78
2023-02-15T19:50:58.516Z,101603.75
2023-02-15T19:53:33.137Z,101598.25
2023-02-15T19:56:00.383Z,101606.03
2023-02-15T19:58:27.542Z,101601.91
2023-02-15T20:00:57.732Z,101603.56
2023-02-15T20:03:24.980Z,101602.13
2023-02-15T20:05:52.275Z,101601.88
2023-02-15T20:08:23.241Z,101599.47
2023-02-15T20:10:56.334Z,101601.06
2023-02-15T20:13:23.635Z,101601.31
2023-02-15T20:15:51.454Z,101601.94
2023-02-15T20:18:21.891Z,101598.66
2023-02-15T20:20:56.598Z,101601.28
2023-02-15T20:23:30.311Z,101605.00
2023-02-15T20:25:59.777Z,101602.53
2023-02-15T20:28:29.720Z,101607.63
2023-02-15T20:30:57.188Z,101606.78
2023-02-15T20:33:24.465Z,101604.34
2023-02-15T20:35:51.806Z,101607.19
2023-02-15T20:38:25.617Z,101602.81
2023-02-15T20:40:53.983Z,101601.94
2023-02-15T20:43:21.216Z,101609.00
2023-02-15T20:45:48.476Z,101606.34
2023-02-15T20:48:15.714Z,101607.31
2023-02-15T20:50:43.775Z,101605.78
2023-02-15T20:53:11.740Z,101610.28
2023-02-15T20:55:39.141Z,101608.84
2023-02-15T20:58:25.843Z,101604.75
2023-02-15T21:00:54.905Z,101605.38
2023-02-15T21:03:25.649Z,101614.06
2023-02-15T21:05:53.138Z,101607.81
2023-02-15T21:08:22.680Z,101611.47
2023-02-15T21:10:54.152Z,101610.19
2023-02-15T21:13:23.257Z,101605.00
2023-02-15T21:15:51.724Z,101611.94
2023-02-15T21:18:24.462Z,101614.72
2023-02-15T21:20:54.963Z,101608.25
2023-02-15T21:23:42.792Z,101607.38
2023-02-15T21:26:19.670Z,101608.53
2023-02-15T21:28:53.250Z,101610.16
2023-02-15T21:31:25.932Z,101609.97
2023-02-15T21:33:53.325Z,101608.72
2023-02-15T21:36:24.003Z,101613.31
2023-02-15T21:38:52.307Z,101604.97
2023-02-15T21:41:22.415Z,101609.56
2023-02-15T21:43:49.745Z,101610.13
2023-02-15T21:46:19.664Z,101612.91
2023-02-15T21:48:46.947Z,101614.34
2023-02-15T21:51:17.261Z,101618.63
2023-02-15T21:53:46.469Z,101626.13
2023-02-15T21:56:18.311Z,101621.72
2023-02-15T21:58:48.128Z,101623.53
2023-02-15T22:01:24.033Z,101623.34
2023-02-15T22:03:59.506Z,101625.16
2023-02-15T22:06:32.965Z,101621.19
2023-02-15T22:09:27.019Z,101611.13
2023-02-15T22:11:55.001Z,101623.00
2023-02-15T22:14:44.520Z,101622.09
2023-02-15T22:17:17.742Z,101617.31
2023-02-15T22:19:46.529Z,101624.00
2023-02-15T22:22:14.380Z,101619.97
2023-02-15T22:24:42.705Z,101623.66
2023-02-15T22:27:25.929Z,101622.72
2023-02-15T22:29:54.537Z,101620.13
2023-02-15T22:32:24.538Z,101621.31
2023-02-15T22:34:53.385Z,101622.88
2023-02-15T22:37:21.283Z,101627.44
2023-02-15T22:39:50.937Z,101628.06
2023-02-15T22:42:26.248Z,101629.84
2023-02-15T22:44:55.252Z,101630.13
2023-02-15T22:47:25.423Z,101632.91
2023-02-15T22:49:53.171Z,101634.91
2023-02-15T22:52:23.330Z,101637.72
2023-02-15T22:54:50.810Z,101636.00
2023-02-15T22:57:31.462Z,101630.03
2023-02-15T22:59:59.029Z,101634.09
2023-02-15T23:02:28.789Z,101637.16
2023-02-15T23:04:56.159Z,101636.13
2023-02-15T23:07:23.531Z,101641.94
2023-02-15T23:09:50.707Z,101643.22
2023-02-15T23:12:30.901Z,101640.88
2023-02-15T23:14:58.517Z,101643.53
2023-02-15T23:17:28.561Z,101636.59
2023-02-15T23:19:58.204Z,101643.66
2023-02-15T23:22:25.302Z,101637.00
2023-02-15T23:24:52.875Z,101639.63
2023-02-15T23:27:22.674Z,101648.28
2023-02-15T23:29:50.044Z,101650.63
2023-02-15T23:32:17.501Z,101639.63
2023-02-15T23:34:45.195Z,101649.19
2023-02-15T23:37:13.182Z,101653.75
2023-02-15T23:39:40.430Z,101659.47
2023-02-15T23:42:12.986Z,101655.84
2023-02-15T23:44:42.528Z,101660.75
2023-02-15T23:47:32.186Z,101659.00
2023-02-15T23:49:59.452Z,101655.47
2023-02-15T23:52:26.629Z,101653.81
2023-02-15T23:54:57.009Z,101656.91
2023-02-15T23:57:24.105Z,101653.81
2023-02-15T23:59:51.219Z,101665.84
